EDDF Airport Information

Runway Information
Runway 07C Length 13123 ft width 197 ft
Elevation 329 ft Threshold 0 ft Heading 70
Runway 25C Length 13123 ft Width 197 ft
Elevation 364 ft Threshold 0 ft Heading 250
Runway 07L Length 9186 ft width 148 ft
Elevation 305 ft Threshold 0 ft Heading 70
Runway 25R Length 9186 ft Width 148 ft
Elevation 353 ft Threshold 0 ft Heading 250
Runway 07R Length 13123 ft width 148 ft
Elevation 328 ft Threshold 0 ft Heading 70
Runway 25L Length 13123 ft Width 148 ft
Elevation 362 ft Threshold 0 ft Heading 250
Runway 18 Length 13123 ft width 148 ft
Elevation 326 ft Threshold 0 ft Heading 180
Runway 36 Length 13123 ft Width 148 ft
Elevation 316 ft Threshold 0 ft Heading 360
Airport Frequencies
Type A/D Name LANGEN RAD Frequency 118.45 MHZ
Type A/D Name LANGEN RAD Frequency 127.275 MHZ
Type AFIS Name LANGEN INF Frequency 119.15 MHZ
Type ATIS Name ATIS Frequency 118.025 MHZ
Type CLD Name DELIVERY Frequency 121.9 MHZ
Type DIR Name DIR Frequency 124.2 MHZ
Type GND Name GND Frequency 121.8 MHZ
Type RMP Name APN Frequency 121.7 MHZ
Type TWR Name TWR Frequency 119.9 MHZ
Airport Navaids
Type VORTAC Name Frankfurt Frequency 114200 KHZ
Type NDB Name Frankfurt Frequency 297 KHZ
Type DME Name Frankfurt Frequency 115900 KHZ
Type NDB Name Frankfurt Frequency 382 KHZ
Airport Weather Information & NOTAM
ADDS - METARS form results

(1838 UTC 11 July 2020)
Data provider http://aviationweather.gov/metar/data/
 
METAR text: EDDF 111820Z 01007KT CAVOK 21/05 Q1024 NOSIG
Conditions at: EDDF (FRANKFURT MAIN A, DE) observed 1820 UTC 11 July 2020
Temperature: 21.0°C (70°F)
Dewpoint: 5.0°C (41°F) [RH = 35%]
Pressure (altimeter): 30.24 inches Hg (1024.0 mb)
Winds: from the N (10 degrees) at 8 MPH (7 knots; 3.6 m/s)
Visibility: 6 or more miles (10+ km)
Ceiling: ceiling and visibility are OK
Clouds: unknown
Weather: no significant weather observed at this time

METAR text: EDDF 111750Z 35010KT CAVOK 21/05 Q1024 NOSIG
Conditions at: EDDF (FRANKFURT MAIN A, DE) observed 1750 UTC 11 July 2020
Temperature: 21.0°C (70°F)
Dewpoint: 5.0°C (41°F) [RH = 35%]
Pressure (altimeter): 30.24 inches Hg (1024.0 mb)
Winds: from the N (350 degrees) at 12 MPH (10 knots; 5.1 m/s)
Visibility: 6 or more miles (10+ km)
Ceiling: ceiling and visibility are OK
Clouds: unknown
Weather: no significant weather observed at this time

Forecast for: EDDF (FRANKFURT MAIN A, DE)
Text: TAF EDDF 111700Z 1118/1224 03006KT CAVOK
Forecast period: 1800 UTC 11 July 2020 to 0000 UTC 13 July 2020
Forecast type: FROM: standard forecast or significant change
Winds: from the NNE (30 degrees) at 7 MPH (6 knots; 3.1 m/s)
Visibility: 6 or more miles 10+ km)
Ceiling: unknown
Clouds: missing
Weather: NSW  (no significant weather)